Flight Track Log - Related Links

Times and Time Zones

All times are in EDT time to prevent confusion due to time zone crossing. See the GJS3649 flight status page for this flight to view local times or setup timezone preferences in your user account.

Time Position Orientation Groundspeed Altitude Reporting Facility
EDT Latitude Longitude Course Direction KTS MPH feet Rate Location/Type
Wed 03:20:11 PM 41.9311 -72.7053 236° Southwest 150 173 900  Level Boston Center
Wed 03:21:00 PM 41.9247 -72.7469 258° West 160 184 2,200 1,814 Climbing Boston Center
Wed 03:22:20 PM 41.9225 -72.8392 268° West 204 235 4,800 2,053 Climbing Boston Center
Wed 03:23:32 PM 41.9200 -72.9311 268° West 226 260 7,400 2,500 Climbing Boston Center
Wed 03:24:00 PM 41.8934 -73.3132 236° Southwest  Level FlightAware Approximate
Wed 03:24:32 PM 41.9172 -73.0483 268° West 262 302 10,300  Level Boston Center
Wed 03:25:00 PM 41.8403 -73.4195 236° Southwest  Level FlightAware Approximate
Wed 03:25:32 PM 41.9144 -73.1739 268° West 298 343 11,400  Level Boston Center
Wed 03:26:32 PM 41.9053 -73.2908 264° West 340 391 12,900 1,550 Climbing Boston Center
Wed 03:27:32 PM 41.8564 -73.4072 241° Southwest 350 403 14,500 1,650 Climbing Boston Center
Wed 03:28:32 PM 41.7989 -73.5400 240° Southwest 376 433 16,200 1,700 Climbing Boston Center
Wed 03:29:32 PM 41.7314 -73.6308 225° Southwest 387 445 17,900 1,900 Climbing Boston Center
Wed 03:30:32 PM 41.6428 -73.7206 217° Southwest 381 438 20,000 2,100 Climbing Boston Center
Wed 03:31:32 PM 41.6600 -73.8489 280° West 314 361 22,100 1,693 Climbing Boston Center
Wed 03:33:15 PM 41.6697 -74.0619 274° West 326 375 24,600 1,362 Climbing New York Center
Wed 03:34:15 PM 41.6253 -74.1622 239° Southwest 320 368 25,800 694 Climbing New York Center
Wed 03:35:16 PM 41.5467 -74.2108 205° Southwest 313 360 26,000 98 Climbing New York Center
Wed 03:36:17 PM 41.4450 -74.2750 205° Southwest 351 404 26,000  Level New York Center
Wed 03:37:17 PM 41.3347 -74.3408 204° Southwest 405 466 26,000  Level New York Center
Wed 03:38:16 PM 41.2075 -74.4086 202° Southwest 433 498 26,000 -50 Level New York Center
Wed 03:39:17 PM 41.0972 -74.4797 206° Southwest 438 504 25,900  Descending New York Center
Wed 03:40:17 PM 40.9867 -74.5425 203° Southwest 438 504 26,000  Climbing New York Center
Wed 03:41:15 PM 40.8967 -74.6225 214° Southwest 438 504 25,900  Descending New York Center
Wed 03:42:16 PM 40.8300 -74.7503 235° Southwest 433 498 26,000 49 Climbing New York Center
Wed 03:43:17 PM 40.7733 -74.8842 241° Southwest 427 491 26,000  Level New York Center
Wed 03:44:15 PM 40.7125 -75.0144 238° Southwest 420 483 26,000 -450 Level New York Center
Wed 03:45:17 PM 40.6511 -75.1503 239° Southwest 420 483 25,100 -942 Descending New York Center
Wed 03:46:16 PM 40.5897 -75.2858 239° Southwest 426 490 24,100 -1,100 Descending New York Center
Wed 03:47:17 PM 40.5328 -75.4131 240° Southwest 426 490 22,900 -1,140 Descending New York Center
Wed 03:48:17 PM 40.4803 -75.5269 239° Southwest 398 458 21,800 -1,050 Descending New York Center
Wed 03:49:17 PM 40.4300 -75.6353 239° Southwest 375 432 20,800 -915 Descending New York Center
Wed 03:50:15 PM 40.3797 -75.7461 239° Southwest 362 417 20,000 -407 Descending New York Center
Wed 03:51:15 PM 40.3247 -75.8619 238° Southwest 368 423 20,000 -99 Level New York Center
Wed 03:52:16 PM 40.2653 -75.9828 237° Southwest 386 444 19,800 -541 Descending New York Center
Wed 03:53:17 PM 40.2097 -76.1036 239° Southwest 381 438 18,900 -893 Descending New York Center
Wed 03:54:17 PM 40.1567 -76.2164 238° Southwest 363 418 18,000 -908 Descending New York Center
Wed 03:55:16 PM 40.1083 -76.3156 238° Southwest 363 418 17,100 -1,160 Descending New York Center
Wed 03:56:16 PM 40.0572 -76.4256 239° Southwest 363 418 15,700 -685 Descending New York Center
Wed 03:58:20 PM 39.9500 -76.6500 238° Southwest 346 398 15,000 -202 Descending Potomac TRACON
Wed 04:00:14 PM 39.8667 -76.8500 242° Southwest 340 391 14,900 -310 Descending Potomac TRACON
Wed 04:01:14 PM 39.8167 -76.9500 237° Southwest 327 376 14,100 -843 Descending Potomac TRACON
Wed 04:02:15 PM 39.7667 -77.0500 237° Southwest 319 367 13,200 -1,339 Descending Potomac TRACON
Wed 04:03:15 PM 39.7167 -77.1500 237° Southwest 306 352 11,400 -1,714 Descending Potomac TRACON
Wed 04:04:21 PM 39.6833 -77.2333 243° Southwest 280 322 9,600 -1,619 Descending Potomac TRACON
Wed 04:05:21 PM 39.6333 -77.3167 232° Southwest 251 289 8,000 -1,289 Descending Potomac TRACON
Wed 04:06:22 PM 39.5667 -77.3500 201° Southwest 242 278 7,000 -446 Descending Potomac TRACON
Wed 04:07:22 PM 39.5167 -77.3667 194° South 230 265 7,100 50 Climbing Potomac TRACON
Wed 04:08:22 PM 39.4667 -77.4167 218° Southwest 231 266 7,100  Level Potomac TRACON
Wed 04:09:23 PM 39.4167 -77.4500 207° Southwest 228 262 7,100  Level Potomac TRACON
Wed 04:10:23 PM 39.3500 -77.4500 180° South 225 259 7,100 -450 Level Potomac TRACON
Wed 04:11:23 PM 39.3000 -77.4500 180° South 192 221 6,200 -900 Descending Potomac TRACON
Wed 04:12:23 PM 39.2500 -77.4500 180° South 179 206 5,300 -750 Descending Potomac TRACON
Wed 04:13:23 PM 39.2000 -77.4500 180° South 178 205 4,700 -900 Descending Potomac TRACON
Wed 04:14:23 PM 39.1500 -77.4500 180° South 183 211 3,500 -1,000 Descending Potomac TRACON
Wed 04:15:23 PM 39.1000 -77.4500 180° South 183 211 2,700 -800 Descending Potomac TRACON

Login

Don't have an account? Register now (free) for customized features, flight alerts, and more!